This is the latest recevied weather packets stored in our database for station/object 5B4APJ-13. If no packets are shown the sender has not sent any weather packets the latest 1 day(s).
| Time | Temp. | Humidity | Pressure | Rain* | Wind** | Luminosity | Snow |
|---|---|---|---|---|---|---|---|
| 1778047622 | 18.33° C | 43% | 1017 hPa | 0 mm | 1.34 m/s, 181° | 453 W/m² | - |
| 1778047322 | 17.78° C | 43% | 1016.9 hPa | 0 mm | 0.45 m/s, 131° | 438 W/m² | - |
| 1778044622 | 17.22° C | 48% | 1016.8 hPa | 0 mm | 1.34 m/s, 65° | 309 W/m² | - |
| 1778044323 | 17.22° C | 50% | 1016.4 hPa | 0 mm | 0.89 m/s, 80° | 294 W/m² | - |
| 1778043722 | 16.67° C | 52% | 1016.4 hPa | 0 mm | 0.45 m/s, 101° | 262 W/m² | - |
| 1778043422 | 16.11° C | 53% | 1016.1 hPa | 0 mm | 0 m/s | 246 W/m² | - |
| 1778042822 | 15.56° C | 57% | 1016.2 hPa | 0 mm | 0.45 m/s, 101° | 215 W/m² | - |
| 1778042222 | 15° C | 61% | 1016.4 hPa | 0 mm | 0.45 m/s, 68° | 187 W/m² | - |
| 1778041922 | 14.44° C | 60% | 1016.3 hPa | 0 mm | 0.89 m/s, 94° | 174 W/m² | - |
| 1778041022 | 13.89° C | 65% | 1016 hPa | 0 mm | 1.34 m/s, 107° | 139 W/m² | - |
| 1778040422 | 14.44° C | 65% | 1015.8 hPa | 0 mm | 0.89 m/s, 94° | 116 W/m² | - |
| 1778040123 | 14.44° C | 66% | 1015.9 hPa | 0 mm | 0.89 m/s, 112° | 105 W/m² | - |
| 1778039822 | 14.44° C | 65% | 1015.8 hPa | 0 mm | 0 m/s | 94 W/m² | - |
| 1778039522 | 13.89° C | 64% | 1015.6 hPa | 0 mm | 0 m/s | 83 W/m² | - |
| 1778039222 | 13.33° C | 67% | 1015.8 hPa | 0 mm | 0 m/s | 72 W/m² | - |
| 1778038922 | 13.89° C | 66% | 1015.8 hPa | 0 mm | 0 m/s | 61 W/m² | - |
| 1778038622 | 13.89° C | 64% | 1015.3 hPa | 0 mm | 0 m/s | 52 W/m² | - |
| 1778038322 | 13.33° C | 65% | 1015.6 hPa | 0 mm | 0.45 m/s, 260° | 43 W/m² | - |
| 1778038022 | 12.78° C | 68% | 1015.6 hPa | 0 mm | 0.45 m/s, 260° | 35 W/m² | - |
| 1778037722 | 12.22° C | 70% | 1015.3 hPa | 0 mm | 0 m/s | 29 W/m² | - |
| 1778037422 | 11.67° C | 71% | 1015.3 hPa | 0 mm | 0 m/s | 23 W/m² | - |
| 1778037122 | 11.67° C | 73% | 1015.3 hPa | 0 mm | 0 m/s | 18 W/m² | - |
| 1778036822 | 11.67° C | 73% | 1015.3 hPa | 0 mm | 0.45 m/s, 257° | 13 W/m² | - |
| 1778036522 | 11.11° C | 75% | 1015.2 hPa | 0 mm | 0.89 m/s, 269° | 10 W/m² | - |
| 1778036222 | 11.11° C | 74% | 1015.2 hPa | 0 mm | 0.45 m/s, 253° | 6 W/m² | - |
* Rain latest hour (hover to see other rain measurements)
** Current wind speed in m/s (hover to see current wind gust speed)